Time;durP1;ratioP1;P1;durP2;ratioP2;P2;SDS_P1;SDS_P2;PMS_P1;PMS_P2;Temp;Humidity;BMP_temperature;BMP_pressure;BME280_temperature;BME280_humidity;BME280_pressure;Samples;Min_cycle;Max_cycle;Signal;HPM_P1;HPM_P2
2022/11/02 00:01:48;;;;;;;;;2.00;1.67;;;;;14.48;76.50;101279.19;5043263;28;45638;-71
2022/11/02 00:04:14;;;;;;;;;1.67;1.00;;;;;14.45;76.61;101279.13;5043649;28;45520;-69
2022/11/02 00:06:40;;;;;;;;;2.00;2.00;;;;;14.38;77.01;101261.41;5043955;28;45378;-70
2022/11/02 00:09:06;;;;;;;;;3.33;2.00;;;;;14.37;76.68;101264.91;5043818;28;45284;-70
2022/11/02 00:11:31;;;;;;;;;3.00;2.00;;;;;14.24;76.57;101267.19;5043392;28;45401;-70
2022/11/02 00:13:57;;;;;;;;;2.00;2.00;;;;;14.18;76.63;101274.03;5042318;28;45261;-70
2022/11/02 00:16:24;;;;;;;;;6.67;3.00;;;;;14.02;77.27;101262.22;5043613;28;45295;-70
2022/11/02 00:18:54;;;;;;;;;1.67;1.67;;;;;13.99;77.98;101270.91;5042315;28;45256;-70
2022/11/02 00:21:21;;;;;;;;;3.00;3.00;;;;;13.99;77.80;101288.41;5043246;28;46220;-70
2022/11/02 00:23:48;;;;;;;;;3.00;2.67;;;;;13.92;78.33;101275.06;5043199;28;45608;-75
2022/11/02 00:26:14;;;;;;;;;2.00;2.00;;;;;13.79;78.50;101259.84;5041941;28;45471;-71
2022/11/02 00:28:40;;;;;;;;;3.67;2.00;;;;;13.89;78.36;101279.38;5043424;28;45204;-70
2022/11/02 00:31:05;;;;;;;;;3.67;2.67;;;;;13.83;78.19;101260.81;5041843;28;46575;-70
2022/11/02 00:33:31;;;;;;;;;1.00;1.00;;;;;13.64;78.80;101228.78;5042528;28;45339;-71
2022/11/02 00:35:57;;;;;;;;;3.00;3.00;;;;;13.31;78.51;101177.13;5043321;28;45438;-70
2022/11/02 00:38:23;;;;;;;;;2.67;2.00;;;;;13.73;79.22;101254.41;5043490;28;45541;-70
2022/11/02 00:40:48;;;;;;;;;4.00;2.33;;;;;13.59;78.64;101230.41;5042802;28;45735;-72
2022/11/02 00:43:18;;;;;;;;;2.00;2.00;;;;;13.70;79.03;101252.56;5041754;28;45351;-74
2022/11/02 00:45:43;;;;;;;;;3.00;2.00;;;;;13.61;78.46;101231.34;5043440;28;45248;-70
2022/11/02 00:48:09;;;;;;;;;2.00;2.00;;;;;13.58;78.73;101235.59;5041948;28;45506;-74
2022/11/02 00:50:34;;;;;;;;;3.00;2.00;;;;;13.49;79.32;101216.13;5041669;28;47630;-71
2022/11/02 00:53:00;;;;;;;;;2.00;1.33;;;;;13.60;79.13;101241.78;5041746;28;45229;-69
2022/11/02 00:55:26;;;;;;;;;2.00;2.00;;;;;13.65;78.75;101256.81;5043043;28;45385;-70
2022/11/02 00:57:52;;;;;;;;;3.00;2.00;;;;;13.55;78.68;101239.03;5042030;28;45657;-70
2022/11/02 01:00:18;;;;;;;;;1.00;1.00;;;;;13.40;78.43;101210.59;5042695;28;45362;-70
2022/11/02 01:02:44;;;;;;;;;3.00;2.00;;;;;13.54;78.68;101253.00;5042924;28;45362;-70
2022/11/02 01:05:10;;;;;;;;;2.00;2.00;;;;;13.38;78.29;101229.78;5043015;28;45437;-70
2022/11/02 01:07:36;;;;;;;;;1.00;1.00;;;;;13.43;78.26;101238.66;5042742;28;45613;-69
2022/11/02 01:10:03;;;;;;;;;1.00;1.00;;;;;13.40;77.97;101234.22;5038471;28;46189;-69
2022/11/02 01:12:29;;;;;;;;;1.00;1.00;;;;;13.40;78.17;101238.56;5038057;28;45237;-69
2022/11/02 01:14:54;;;;;;;;;1.00;1.00;;;;;13.37;78.25;101238.47;5039523;28;45273;-73
2022/11/02 01:17:20;;;;;;;;;1.67;0.67;;;;;13.34;77.72;101244.53;5039272;28;45396;-73
2022/11/02 01:19:45;;;;;;;;;1.00;1.00;;;;;13.31;77.57;101250.59;5039370;28;46575;-70
2022/11/02 01:22:11;;;;;;;;;1.00;1.00;;;;;13.26;77.92;101232.88;5039265;28;45576;-69
2022/11/02 01:24:36;;;;;;;;;2.33;2.00;;;;;13.23;77.90;101238.03;5037909;28;45640;-69
2022/11/02 01:27:02;;;;;;;;;1.33;1.00;;;;;12.68;77.40;101148.09;5039407;28;45637;-70
2022/11/02 01:29:28;;;;;;;;;1.00;1.00;;;;;13.16;77.51;101236.06;5039203;28;45438;-71
2022/11/02 01:31:53;;;;;;;;;3.00;1.00;;;;;13.17;77.47;101237.84;5039303;28;45354;-71
2022/11/02 01:34:22;;;;;;;;;2.00;1.67;;;;;13.10;77.59;101226.28;5039461;28;45490;-71
2022/11/02 01:36:47;;;;;;;;;2.00;1.33;;;;;13.26;78.02;101246.88;5039355;28;45237;-69
2022/11/02 01:39:14;;;;;;;;;1.33;1.33;;;;;13.12;78.03;101224.59;5038835;28;46564;-71
2022/11/02 01:41:40;;;;;;;;;2.00;1.33;;;;;13.17;77.82;101237.84;5038951;28;45271;-70
2022/11/02 01:44:28;;;;;;;;;1.33;1.33;;;;;13.19;78.39;101247.56;5037720;28;45432;-71
2022/11/02 01:47:00;;;;;;;;;1.00;1.00;;;;;13.06;78.45;101221.78;5039169;28;45562;-71
2022/11/02 01:49:26;;;;;;;;;2.33;2.00;;;;;13.17;79.07;101243.09;5038526;28;45556;-69
2022/11/02 01:52:06;;;;;;;;;1.00;1.00;;;;;13.14;78.56;101233.41;5038899;28;45276;-71
2022/11/02 01:54:41;;;;;;;;;3.67;2.00;;;;;12.99;78.54;101210.22;5038953;28;45375;-69
2022/11/02 01:57:11;;;;;;;;;0.00;0.00;;;;;13.04;78.10;101228.72;5038859;28;45461;-69
2022/11/02 02:00:05;;;;;;;;;1.33;1.00;;;;;13.09;78.03;101234.97;5037159;28;47013;-74
2022/11/02 02:02:34;;;;;;;;;2.00;1.33;;;;;13.07;77.84;101226.19;5038155;28;45941;-69
2022/11/02 02:05:06;;;;;;;;;1.00;1.00;;;;;13.02;77.92;101226.03;5038779;28;45517;-71
2022/11/02 02:07:34;;;;;;;;;1.33;1.00;;;;;12.92;77.92;101211.75;5039061;28;45278;-75
2022/11/02 02:10:00;;;;;;;;;1.00;1.00;;;;;12.90;77.91;101217.81;5038490;28;45503;-69
2022/11/02 02:12:28;;;;;;;;;1.33;1.33;;;;;12.90;78.14;101216.06;5038422;28;45495;-70
2022/11/02 02:14:53;;;;;;;;;1.00;0.00;;;;;12.85;77.82;101212.44;5038619;28;45426;-71
2022/11/02 02:17:24;;;;;;;;;2.67;1.67;;;;;12.93;78.06;101224.03;5038441;28;45563;-71
2022/11/02 02:20:14;;;;;;;;;1.00;1.00;;;;;12.91;78.35;101220.47;5038218;28;46545;-70
2022/11/02 02:22:53;;;;;;;;;3.00;1.00;;;;;12.93;78.11;101223.13;5038322;28;45586;-73
2022/11/02 02:25:46;;;;;;;;;2.67;2.00;;;;;12.91;78.00;101214.31;5038803;28;45397;-75
2022/11/02 02:28:33;;;;;;;;;1.50;1.00;;;;;12.88;78.25;101204.63;5038548;28;45568;-76
2022/11/02 02:31:11;;;;;;;;;1.25;1.00;;;;;12.66;77.68;101165.50;5036757;28;45395;-76
2022/11/02 02:33:52;;;;;;;;;3.00;2.00;;;;;12.85;77.89;101199.31;5037961;28;45397;-76
2022/11/02 02:36:31;;;;;;;;;2.50;2.50;;;;;12.79;77.60;101206.06;5038331;28;45952;-76
2022/11/02 02:39:10;;;;;;;;;2.00;2.00;;;;;12.76;77.53;101198.13;5036995;28;45477;-72
2022/11/02 02:41:43;;;;;;;;;2.33;2.33;;;;;12.78;77.40;101196.44;5037629;28;46193;-75
2022/11/02 02:44:19;;;;;;;;;1.50;1.00;;;;;12.69;77.34;101184.84;5037825;28;45521;-71
2022/11/02 02:47:00;;;;;;;;;4.00;2.00;;;;;12.74;77.36;101196.34;5036624;28;45351;-71
2022/11/02 02:49:37;;;;;;;;;1.25;1.25;;;;;12.68;77.63;101179.53;5038171;28;45398;-71
2022/11/02 02:52:04;;;;;;;;;2.00;2.00;;;;;12.72;78.11;101184.03;5036261;28;46275;-71
2022/11/02 02:54:41;;;;;;;;;2.25;1.00;;;;;12.67;77.98;101170.78;5036219;28;45307;-71
2022/11/02 02:57:11;;;;;;;;;2.00;1.00;;;;;12.62;77.53;101171.47;5038133;28;45216;-71
2022/11/02 02:59:44;;;;;;;;;2.00;2.00;;;;;12.67;77.95;101181.28;5036648;28;45281;-71
2022/11/02 03:02:26;;;;;;;;;1.75;1.75;;;;;12.64;77.97;101180.28;5037455;28;45604;-73
2022/11/02 03:04:51;;;;;;;;;4.00;2.00;;;;;12.57;77.63;101165.19;5036754;28;45421;-71
2022/11/02 03:07:23;;;;;;;;;2.00;2.00;;;;;12.55;77.50;101178.25;5037890;28;45508;-71
2022/11/02 03:10:34;;;;;;;;;2.25;1.50;;;;;12.33;77.91;101145.22;5038052;28;45417;-71
2022/11/02 03:13:14;;;;;;;;;1.75;1.50;;;;;12.46;78.27;101176.22;5036743;28;45964;-75
2022/11/02 03:15:53;;;;;;;;;3.00;2.00;;;;;12.42;77.88;101170.84;5036158;28;45331;-70
2022/11/02 03:18:35;;;;;;;;;1.50;1.00;;;;;12.50;77.97;101182.47;5037575;28;45497;-76
2022/11/02 03:21:27;;;;;;;;;2.00;2.00;;;;;12.46;77.52;101178.84;5037497;28;45285;-70
2022/11/02 03:24:54;;;;;;;;;0.00;0.00;;;;;12.33;77.79;101161.84;5037676;28;45406;-70
2022/11/02 03:27:28;;;;;;;;;2.00;2.00;;;;;12.35;77.63;101177.59;4959016;28;45450;-70
2022/11/02 03:30:13;;;;;;;;;4.00;3.00;;;;;12.43;77.73;101190.94;5028554;28;45313;-70
2022/11/02 03:32:57;;;;;;;;;2.75;2.00;;;;;12.43;78.01;101191.84;5036706;28;45372;-71
2022/11/02 03:35:44;;;;;;;;;2.00;2.00;;;;;12.37;77.56;101186.41;5035847;28;47116;-71
2022/11/02 03:38:21;;;;;;;;;3.00;2.00;;;;;12.43;77.44;101201.44;5037367;28;45441;-71
2022/11/02 03:40:51;;;;;;;;;2.00;1.00;;;;;12.25;76.60;101165.03;5037350;28;45550;-71
2022/11/02 03:43:19;;;;;;;;;2.00;2.00;;;;;12.32;76.93;101194.13;5037348;28;45505;-70
2022/11/02 03:45:54;;;;;;;;;2.00;2.00;;;;;12.30;77.36;101181.81;5036547;28;45281;-70
2022/11/02 03:48:22;;;;;;;;;1.50;1.50;;;;;12.36;77.41;101204.72;5037015;28;45318;-71
2022/11/02 03:50:51;;;;;;;;;2.00;2.00;;;;;12.34;77.31;101202.03;5035881;28;45393;-71
2022/11/02 03:53:26;;;;;;;;;1.50;1.50;;;;;12.36;77.29;101208.22;5037286;28;45421;-72
2022/11/02 03:56:04;;;;;;;;;1.00;1.00;;;;;12.30;77.12;101200.16;5035238;28;45374;-70
2022/11/02 03:58:34;;;;;;;;;3.50;2.25;;;;;12.32;77.39;101206.34;5036650;28;45370;-70
2022/11/02 04:01:03;;;;;;;;;2.00;2.00;;;;;12.08;77.90;101181.09;5036745;28;45330;-71
2022/11/02 04:03:32;;;;;;;;;1.00;1.00;;;;;12.16;78.40;101190.94;5037202;28;45541;-70
2022/11/02 04:05:58;;;;;;;;;3.25;1.75;;;;;12.12;77.80;101200.44;5037141;28;45455;-70
2022/11/02 04:08:58;;;;;;;;;3.00;2.00;;;;;12.03;77.45;101190.50;5036990;28;45411;-75
2022/11/02 04:19:26;;;;;;;;;2.00;2.00;;;;;11.94;78.49;101193.72;5036479;28;45855;-69
2022/11/02 04:19:40;;;;;;;;;2.00;2.00;;;;;11.85;79.25;101184.59;5036564;28;45504;-69
2022/11/02 04:27:33;;;;;;;;;2.00;2.00;;;;;11.89;78.82;101205.72;5036568;28;45495;-70
2022/11/02 04:29:59;;;;;;;;;3.00;2.00;;;;;11.90;79.38;101212.78;5036302;28;45464;-70
2022/11/02 04:35:08;;;;;;;;;1.25;1.00;;;;;11.75;80.18;101184.28;5036664;28;45484;-70
2022/11/02 04:40:25;;;;;;;;;2.00;2.00;;;;;11.82;79.76;101180.16;5036703;28;45409;-70
2022/11/02 04:42:51;;;;;;;;;2.50;2.00;;;;;11.75;79.69;101171.19;5037059;28;45415;-70
2022/11/02 04:45:17;;;;;;;;;2.25;2.25;;;;;11.95;79.13;101205.06;5040359;28;45431;-70
2022/11/02 04:47:42;;;;;;;;;3.00;1.25;;;;;11.94;79.23;101206.81;5038506;28;46247;-74
2022/11/02 04:50:08;;;;;;;;;3.00;2.00;;;;;11.88;79.18;101201.31;5039819;28;45327;-70
2022/11/02 04:52:34;;;;;;;;;1.50;1.25;;;;;11.94;79.40;101214.66;5039971;28;45541;-70
2022/11/02 04:54:59;;;;;;;;;3.00;2.00;;;;;11.77;79.12;101194.81;5038952;28;45262;-70
2022/11/02 04:57:25;;;;;;;;;2.25;2.00;;;;;11.67;79.14;101177.00;5039753;28;45336;-69
2022/11/02 04:59:50;;;;;;;;;4.00;2.00;;;;;11.85;79.00;101211.66;5039592;28;45328;-74
2022/11/02 05:02:16;;;;;;;;;2.00;2.00;;;;;11.70;79.03;101184.97;5039740;28;45483;-71
2022/11/02 05:04:41;;;;;;;;;3.00;2.00;;;;;11.86;78.83;101210.84;5040050;28;45824;-74
2022/11/02 05:07:09;;;;;;;;;3.25;2.50;;;;;11.82;78.47;101210.69;5039568;28;45629;-74
2022/11/02 05:09:35;;;;;;;;;4.25;3.75;;;;;11.84;79.06;101220.38;5039507;28;45497;-70
2022/11/02 05:12:03;;;;;;;;;4.00;3.50;;;;;11.67;78.27;101201.44;5039941;28;45437;-70
2022/11/02 05:14:29;;;;;;;;;4.00;4.00;;;;;11.69;78.11;101225.06;5040110;28;45466;-70
2022/11/02 05:16:55;;;;;;;;;4.25;3.75;;;;;11.61;78.38;101227.38;5039340;28;45657;-70
2022/11/02 05:19:20;;;;;;;;;4.75;4.25;;;;;11.48;78.55;101209.44;5039192;28;45232;-69
2022/11/02 05:21:46;;;;;;;;;3.00;2.25;;;;;11.47;78.93;101218.16;5039243;28;45157;-70
2022/11/02 05:24:11;;;;;;;;;2.75;2.75;;;;;11.47;78.81;101215.53;5039475;28;45413;-70
2022/11/02 05:26:36;;;;;;;;;4.75;3.00;;;;;11.47;78.50;101208.56;5039268;28;46389;-69
2022/11/02 05:29:02;;;;;;;;;5.50;4.00;;;;;11.43;79.21;101205.78;5039462;28;45426;-74
2022/11/02 05:31:28;;;;;;;;;3.50;3.00;;;;;11.41;79.97;101202.22;5039651;28;45405;-69
2022/11/02 05:33:53;;;;;;;;;5.00;4.00;;;;;11.42;80.55;101219.69;5038237;28;45351;-70
2022/11/02 05:36:19;;;;;;;;;4.50;3.00;;;;;11.32;80.83;101205.38;5039080;28;45449;-70
2022/11/02 05:38:44;;;;;;;;;5.00;4.00;;;;;11.19;80.35;101190.06;5038871;28;45510;-74
2022/11/02 05:41:10;;;;;;;;;3.00;3.00;;;;;11.17;81.06;101202.19;5039207;28;45529;-73
2022/11/02 05:43:36;;;;;;;;;3.25;2.25;;;;;11.13;81.09;101195.94;5039485;28;45591;-70
2022/11/02 05:46:02;;;;;;;;;3.00;3.00;;;;;11.02;81.57;101173.72;5038935;28;45939;-70
2022/11/02 05:48:31;;;;;;;;;4.00;3.25;;;;;11.15;82.03;101203.00;5037665;28;45435;-72
2022/11/02 05:50:59;;;;;;;;;2.50;2.00;;;;;11.14;81.18;101198.63;5038971;28;45560;-70
2022/11/02 05:53:26;;;;;;;;;3.00;3.00;;;;;11.02;80.70;101177.25;5039123;28;45515;-73
2022/11/02 05:55:56;;;;;;;;;3.00;3.00;;;;;11.08;81.17;101187.94;5037974;28;45557;-75
2022/11/02 05:58:22;;;;;;;;;4.00;4.00;;;;;11.07;81.07;101180.03;5038658;28;45242;-71
2022/11/02 06:00:47;;;;;;;;;2.50;2.50;;;;;11.10;81.19;101180.13;5038581;28;45302;-71
2022/11/02 06:03:13;;;;;;;;;3.00;2.00;;;;;11.12;81.20;101183.69;5037591;28;45641;-70
2022/11/02 06:05:38;;;;;;;;;4.00;3.00;;;;;11.09;80.95;101178.38;5038485;28;45862;-74
2022/11/02 06:08:04;;;;;;;;;3.00;3.00;;;;;11.12;80.71;101183.69;5037600;28;45351;-71
2022/11/02 06:10:30;;;;;;;;;2.25;2.00;;;;;11.20;80.44;101192.75;5038725;28;45338;-70
2022/11/02 06:12:58;;;;;;;;;6.00;3.00;;;;;11.21;80.55;101194.50;5036636;28;45544;-70
2022/11/02 06:15:23;;;;;;;;;2.50;2.50;;;;;11.08;80.55;101169.63;5037304;28;45480;-69
2022/11/02 06:17:50;;;;;;;;;4.00;3.00;;;;;11.17;80.33;101179.53;5037491;28;45540;-71
2022/11/02 06:20:16;;;;;;;;;3.00;3.00;;;;;11.22;80.21;101193.69;5037459;28;45439;-70
2022/11/02 06:22:42;;;;;;;;;2.50;2.00;;;;;11.08;80.13;101166.09;5036482;28;45168;-69
2022/11/02 06:25:08;;;;;;;;;2.50;2.50;;;;;11.21;79.80;101196.25;5035914;28;46667;-70
2022/11/02 06:27:34;;;;;;;;;3.75;3.00;;;;;11.18;79.75;101190.88;5037594;28;45482;-70
2022/11/02 06:30:00;;;;;;;;;3.75;2.50;;;;;11.05;79.55;101172.13;5037475;28;45346;-74
2022/11/02 06:32:26;;;;;;;;;1.50;1.00;;;;;11.09;79.52;101175.75;5036068;28;45715;-70
2022/11/02 06:34:52;;;;;;;;;4.00;3.75;;;;;11.06;79.54;101171.31;5034422;28;45527;-69
2022/11/02 06:37:17;;;;;;;;;5.75;5.00;;;;;11.10;79.78;101180.13;5037196;28;46249;-69
2022/11/02 06:39:43;;;;;;;;;5.25;4.00;;;;;11.11;79.65;101180.19;5037222;28;45527;-69
2022/11/02 06:42:09;;;;;;;;;4.00;3.75;;;;;11.15;79.24;101187.31;5037466;28;45537;-70
2022/11/02 06:44:34;;;;;;;;;4.00;4.00;;;;;11.13;79.67;101175.91;5037272;28;46101;-75
2022/11/02 06:47:00;;;;;;;;;3.75;3.75;;;;;11.20;79.52;101181.38;5052629;28;45551;-70
2022/11/02 06:49:25;;;;;;;;;4.50;4.50;;;;;10.71;79.27;101096.78;5036945;28;45639;-69
2022/11/02 06:51:51;;;;;;;;;4.00;4.00;;;;;11.22;79.17;101182.31;5037173;28;45446;-69
2022/11/02 06:54:17;;;;;;;;;5.50;5.00;;;;;11.16;79.06;101164.69;5035607;28;47220;-69
2022/11/02 06:56:42;;;;;;;;;8.00;5.75;;;;;11.21;79.19;101167.47;5037204;28;45322;-70
2022/11/02 06:59:08;;;;;;;;;7.50;7.25;;;;;11.23;79.29;101177.16;5037075;28;45516;-69
2022/11/02 07:01:33;;;;;;;;;14.00;9.75;;;;;11.15;79.49;101163.78;5037405;28;45684;-70
2022/11/02 07:04:00;;;;;;;;;19.25;17.50;;;;;11.17;79.40;101165.59;5036742;28;46435;-69
2022/11/02 07:06:26;;;;;;;;;23.50;19.25;;;;;11.01;78.87;101140.59;5050914;28;45399;-70
2022/11/02 07:08:51;;;;;;;;;23.00;19.75;;;;;11.08;79.19;101159.19;5036643;28;45258;-69
2022/11/02 07:11:17;;;;;;;;;11.00;10.00;;;;;11.19;79.86;101175.25;5036880;28;45396;-69
2022/11/02 07:13:43;;;;;;;;;19.00;18.75;;;;;11.25;80.36;101170.25;5036168;28;46517;-69
2022/11/02 07:16:09;;;;;;;;;16.25;14.00;;;;;11.25;80.76;101167.63;5052184;28;45563;-70
2022/11/02 07:18:35;;;;;;;;;10.00;9.75;;;;;11.29;80.27;101159.06;5036647;28;45472;-70
2022/11/02 07:21:01;;;;;;;;;9.75;6.50;;;;;11.46;80.33;101179.72;5035519;28;45724;-70
2022/11/02 07:23:27;;;;;;;;;7.50;7.25;;;;;11.51;80.42;101179.06;5036570;28;46148;-75
2022/11/02 07:25:52;;;;;;;;;5.00;4.00;;;;;11.47;79.93;101161.47;5036454;28;45497;-70
2022/11/02 07:28:18;;;;;;;;;4.00;3.25;;;;;11.60;80.23;101178.50;5035937;28;45518;-74
2022/11/02 07:30:44;;;;;;;;;8.25;8.25;;;;;11.68;79.52;101182.28;5035515;28;45492;-70
2022/11/02 07:33:10;;;;;;;;;10.25;9.75;;;;;11.72;79.17;101168.47;5036634;28;45924;-70
2022/11/02 07:35:35;;;;;;;;;9.00;7.00;;;;;11.86;78.83;101174.19;5036465;28;45492;-70
2022/11/02 07:38:03;;;;;;;;;9.75;9.50;;;;;11.98;78.25;101175.47;5051761;28;45450;-69
2022/11/02 07:40:31;;;;;;;;;11.00;10.00;;;;;12.04;78.08;101168.72;5037272;28;45353;-70
2022/11/02 07:42:57;;;;;;;;;11.00;10.00;;;;;12.13;77.80;101155.03;5036558;28;46045;-71
2022/11/02 07:45:23;;;;;;;;;7.50;6.00;;;;;12.31;77.48;101175.72;5036755;28;45174;-68
2022/11/02 07:47:49;;;;;;;;;6.00;5.00;;;;;12.37;77.13;101160.19;5034898;28;45882;-70
2022/11/02 07:50:18;;;;;;;;;14.75;12.00;;;;;12.66;75.82;101166.38;5036611;28;45400;-72
2022/11/02 07:52:54;;;;;;;;;32.00;26.00;;;;;14.67;69.14;101164.88;5036045;28;45469;-72
2022/11/02 07:55:22;;;;;;;;;10.50;7.00;;;;;16.63;62.57;101169.50;5036086;28;45457;-68
2022/11/02 07:57:52;;;;;;;;;7.00;6.00;;;;;17.64;61.87;101183.19;5036830;28;45522;-71
2022/11/02 08:00:18;;;;;;;;;6.75;5.50;;;;;19.34;57.78;101174.81;5034952;28;45521;-73
2022/11/02 08:02:43;;;;;;;;;5.00;4.00;;;;;19.96;52.34;101150.28;5035985;28;45598;-71
2022/11/02 08:05:09;;;;;;;;;4.00;4.00;;;;;21.26;51.27;101172.22;5036622;28;45305;-70
2022/11/02 08:07:34;;;;;;;;;2.67;2.33;;;;;21.86;49.36;101166.63;5034884;28;45673;-69
2022/11/02 08:10:00;;;;;;;;;3.00;3.00;;;;;22.47;48.79;101169.75;5036341;28;45413;-70
2022/11/02 08:12:26;;;;;;;;;2.33;2.00;;;;;22.52;48.03;101154.59;5035500;28;45466;-69
2022/11/02 08:14:52;;;;;;;;;3.00;2.67;;;;;21.53;47.86;101162.41;5051382;28;45275;-70
2022/11/02 08:17:17;;;;;;;;;5.33;4.00;;;;;20.04;51.69;101168.88;5035088;28;45479;-71
2022/11/02 08:19:43;;;;;;;;;6.00;4.33;;;;;19.27;54.25;101179.22;5039519;28;45457;-71
2022/11/02 08:22:08;;;;;;;;;5.00;5.00;;;;;18.79;56.13;101183.34;5039787;28;45575;-70
2022/11/02 08:24:34;;;;;;;;;5.00;4.00;;;;;18.77;56.81;101179.81;5039989;28;45433;-71
2022/11/02 08:26:59;;;;;;;;;3.33;3.33;;;;;19.70;55.01;101187.34;5038949;28;45497;-72
2022/11/02 08:29:25;;;;;;;;;4.00;4.00;;;;;20.52;53.68;101182.13;5055490;28;45514;-71
2022/11/02 08:31:50;;;;;;;;;3.33;2.67;;;;;21.51;51.38;101177.50;5039778;28;45514;-71
2022/11/02 08:34:16;;;;;;;;;3.00;3.00;;;;;22.37;49.57;101171.59;5039948;28;45500;-71
2022/11/02 08:36:41;;;;;;;;;3.33;3.00;;;;;22.94;47.81;101168.34;5040155;28;45425;-70
2022/11/02 08:39:07;;;;;;;;;2.33;2.00;;;;;23.99;45.63;101162.56;5040358;28;45498;-71
2022/11/02 08:41:33;;;;;;;;;1.33;1.00;;;;;24.05;45.57;101164.25;5039539;28;46419;-70
2022/11/02 08:43:59;;;;;;;;;8.33;8.00;;;;;24.36;43.31;101161.97;5039577;28;45319;-71
2022/11/02 08:46:24;;;;;;;;;5.00;4.33;;;;;23.85;44.03;101175.25;5038619;28;45249;-71
2022/11/02 08:48:50;;;;;;;;;4.00;3.67;;;;;24.06;44.11;101164.25;5039755;28;45537;-71
2022/11/02 08:51:18;;;;;;;;;2.00;2.00;;;;;24.39;44.02;101138.75;5038438;28;46345;-71
2022/11/02 08:53:44;;;;;;;;;3.00;2.67;;;;;24.40;43.05;101158.34;5039697;28;45332;-71
2022/11/02 08:56:09;;;;;;;;;4.00;3.00;;;;;24.41;43.16;101168.09;5039945;28;45501;-71
2022/11/02 08:58:35;;;;;;;;;5.00;5.00;;;;;24.30;43.68;101165.63;5038491;28;45410;-70
2022/11/02 09:01:00;;;;;;;;;4.00;4.00;;;;;24.40;43.06;101161.88;5039056;28;45382;-71
2022/11/02 09:03:27;;;;;;;;;2.00;2.00;;;;;24.27;42.30;101136.28;5054271;28;45271;-71
2022/11/02 09:05:57;;;;;;;;;3.00;2.33;;;;;24.13;45.09;101157.91;5039160;28;45295;-70
2022/11/02 09:08:24;;;;;;;;;3.00;3.00;;;;;24.09;43.38;101166.84;5039681;28;45441;-71
2022/11/02 09:10:51;;;;;;;;;5.67;5.67;;;;;24.04;44.35;101162.50;5039020;28;46140;-71
2022/11/02 09:13:20;;;;;;;;;3.33;3.00;;;;;23.94;44.93;101151.97;5038736;28;45447;-71
2022/11/02 09:15:49;;;;;;;;;3.67;3.67;;;;;23.85;46.22;101160.09;5039232;28;45469;-71
2022/11/02 09:18:15;;;;;;;;;4.00;2.00;;;;;23.53;45.45;101134.75;5039468;28;45826;-71
2022/11/02 09:20:40;;;;;;;;;3.00;3.00;;;;;23.72;45.36;101150.50;5038948;28;46336;-70
2022/11/02 09:23:06;;;;;;;;;3.00;3.00;;;;;23.90;45.08;101146.72;5039280;28;45450;-70
2022/11/02 09:25:32;;;;;;;;;4.00;4.00;;;;;24.23;45.21;101155.94;5038940;28;45496;-70
2022/11/02 09:27:58;;;;;;;;;4.00;3.00;;;;;24.39;45.44;101145.88;5038939;28;45533;-70
2022/11/02 09:30:25;;;;;;;;;3.33;3.00;;;;;24.77;45.27;101152.31;5036294;28;46924;-71
2022/11/02 09:32:59;;;;;;;;;3.00;2.00;;;;;24.90;44.61;101153.84;5038835;28;45410;-72
2022/11/02 09:35:28;;;;;;;;;3.00;2.00;;;;;24.81;43.58;101146.91;5038811;28;45516;-71
2022/11/02 09:37:53;;;;;;;;;2.67;2.67;;;;;24.54;44.51;101136.75;5038968;28;45551;-71
2022/11/02 09:40:21;;;;;;;;;2.67;2.67;;;;;24.51;44.51;101137.69;5036952;28;46932;-70
2022/11/02 09:43:16;;;;;;;;;1.00;1.00;;;;;24.72;45.45;101132.84;5054233;28;45544;-71
2022/11/02 09:46:16;;;;;;;;;2.00;2.00;;;;;24.88;43.58;101123.63;5037988;28;45344;-70
2022/11/02 09:48:53;;;;;;;;;4.33;4.33;;;;;24.98;43.05;101124.31;5039008;28;45539;-71
2022/11/02 09:51:26;;;;;;;;;7.67;7.67;;;;;24.92;43.35;101119.97;5038391;28;45411;-71
2022/11/02 09:54:15;;;;;;;;;6.67;6.67;;;;;24.71;44.75;101128.41;5038424;28;45384;-71
2022/11/02 09:56:41;;;;;;;;;6.00;6.00;;;;;24.69;45.25;101107.09;5038758;28;45346;-72
2022/11/02 09:59:16;;;;;;;;;3.33;3.00;;;;;24.97;44.54;101118.09;5038594;28;45504;-72
2022/11/02 10:01:55;;;;;;;;;3.00;2.00;;;;;25.05;43.46;101085.84;5038140;28;45836;-71
2022/11/02 10:04:58;;;;;;;;;4.67;4.33;;;;;24.96;44.90;101094.94;5038381;28;45295;-72
2022/11/02 10:07:51;;;;;;;;;4.67;4.67;;;;;24.81;44.90;101092.59;5038286;28;45466;-73
2022/11/02 10:10:26;;;;;;;;;3.00;3.00;;;;;24.73;44.57;101068.72;5038936;28;45521;-71
2022/11/02 10:13:14;;;;;;;;;3.00;3.00;;;;;24.96;45.25;101088.72;5038150;28;45967;-72
2022/11/02 10:15:50;;;;;;;;;2.67;2.00;;;;;24.99;44.12;101072.63;5037801;28;45351;-71
2022/11/02 10:18:24;;;;;;;;;3.00;3.00;;;;;24.92;44.43;101081.69;5038241;28;45271;-71
2022/11/02 10:20:59;;;;;;;;;4.00;4.00;;;;;24.51;44.49;101054.91;5038131;28;45410;-71
2022/11/02 10:23:49;;;;;;;;;3.00;3.00;;;;;24.20;44.61;101058.09;5053179;28;46394;-71
2022/11/02 10:26:21;;;;;;;;;4.67;3.00;;;;;24.24;45.39;101044.72;5037491;28;45524;-71
2022/11/02 10:28:58;;;;;;;;;4.00;2.33;;;;;24.18;44.92;101059.06;5053285;28;45436;-71
2022/11/02 10:31:29;;;;;;;;;3.33;3.00;;;;;24.38;46.43;101054.22;5053610;28;45598;-71
2022/11/02 10:33:56;;;;;;;;;3.33;2.67;;;;;24.57;45.74;101037.84;5037651;28;45579;-71
2022/11/02 10:36:49;;;;;;;;;3.33;2.67;;;;;24.81;45.36;101052.53;5036099;28;45353;-71
2022/11/02 10:39:18;;;;;;;;;2.00;1.67;;;;;24.94;44.30;101045.09;5037795;28;45315;-70
2022/11/02 10:42:19;;;;;;;;;4.67;4.00;;;;;24.85;44.71;101030.16;5037215;28;45500;-70
2022/11/02 10:45:28;;;;;;;;;2.00;2.00;;;;;24.96;44.21;101037.94;5037772;28;46366;-70
2022/11/02 10:48:02;;;;;;;;;2.00;2.00;;;;;24.82;43.86;101030.22;5037471;28;45327;-70
2022/11/02 10:50:37;;;;;;;;;3.00;2.33;;;;;24.68;44.17;101040.31;5052904;28;45451;-70
2022/11/02 10:53:02;;;;;;;;;4.00;4.00;;;;;24.47;44.84;101014.88;5036314;28;45685;-70
2022/11/02 10:55:51;;;;;;;;;3.67;3.67;;;;;24.28;44.84;101023.25;5036707;28;45964;-71
2022/11/02 10:58:20;;;;;;;;;3.33;2.67;;;;;24.16;45.70;101023.50;5036234;28;45514;-70
2022/11/02 11:00:46;;;;;;;;;6.67;5.00;;;;;24.03;44.95;101012.16;5037880;28;45281;-71
2022/11/02 11:03:17;;;;;;;;;7.33;7.33;;;;;23.69;45.21;100998.50;5037821;28;45191;-70
2022/11/02 11:05:49;;;;;;;;;11.00;8.67;;;;;23.73;45.96;101005.53;5037128;28;46207;-70
2022/11/02 11:08:38;;;;;;;;;7.33;6.67;;;;;23.56;45.61;101005.84;5037147;28;45485;-71
2022/11/02 11:11:17;;;;;;;;;5.00;5.00;;;;;23.43;45.37;100998.00;5052621;28;45253;-70
2022/11/02 11:13:51;;;;;;;;;8.00;8.00;;;;;23.47;45.82;101001.53;5037351;28;45303;-70
2022/11/02 11:16:18;;;;;;;;;7.00;7.00;;;;;23.43;45.93;100990.00;5037193;28;45390;-70
2022/11/02 11:18:50;;;;;;;;;9.00;8.00;;;;;23.40;46.77;100989.22;5036936;28;45386;-70
2022/11/02 11:21:17;;;;;;;;;6.00;6.00;;;;;23.37;46.38;100978.59;5035767;28;45494;-70
2022/11/02 11:23:42;;;;;;;;;5.67;5.67;;;;;23.33;45.64;100984.88;5037105;28;45347;-71
2022/11/02 11:26:27;;;;;;;;;5.67;5.00;;;;;23.33;46.23;100991.06;5036740;28;45241;-71
2022/11/02 11:28:56;;;;;;;;;4.67;4.00;;;;;23.27;45.37;100985.84;5052531;28;45435;-70
2022/11/02 11:31:23;;;;;;;;;5.00;5.00;;;;;23.32;45.18;100962.66;5037398;28;45490;-70
2022/11/02 11:33:57;;;;;;;;;5.00;4.67;;;;;23.43;45.33;100959.81;5037479;28;45323;-72
2022/11/02 11:36:30;;;;;;;;;4.00;4.00;;;;;23.52;45.01;100970.34;5037003;28;46157;-70
2022/11/02 11:38:59;;;;;;;;;3.00;3.00;;;;;23.49;44.41;100958.84;5036782;28;45365;-71
2022/11/02 11:41:25;;;;;;;;;3.00;3.00;;;;;23.54;44.29;100955.19;5036733;28;45438;-71
2022/11/02 11:43:52;;;;;;;;;2.00;2.00;;;;;23.35;43.64;100922.63;5035669;28;45504;-71
2022/11/02 11:46:18;;;;;;;;;5.33;4.00;;;;;23.40;43.94;100936.75;5036436;28;47344;-70
2022/11/02 11:48:53;;;;;;;;;2.33;2.33;;;;;23.39;44.63;100921.66;5036812;28;45373;-71
2022/11/02 11:51:36;;;;;;;;;2.00;2.00;;;;;23.11;43.54;100915.91;5037174;28;45504;-71
2022/11/02 11:54:16;;;;;;;;;2.00;2.00;;;;;23.25;44.45;100921.00;5036071;28;45540;-70
2022/11/02 11:56:42;;;;;;;;;3.67;3.67;;;;;23.30;44.23;100913.84;5036653;28;45546;-71